createdAt,value
2023-02-11T00:02:49.000Z,32.30
2023-02-11T00:12:49.000Z,32.30
2023-02-11T00:22:49.000Z,33.60
2023-02-11T00:32:49.000Z,32.60
2023-02-11T00:42:49.000Z,33.40
2023-02-11T00:52:49.000Z,32.10
2023-02-11T01:02:48.000Z,32.60
2023-02-11T01:12:48.000Z,33.70
2023-02-11T01:22:48.000Z,32.80
2023-02-11T01:32:48.000Z,32.70
2023-02-11T01:42:48.000Z,33.90
2023-02-11T01:52:48.000Z,34.60
2023-02-11T02:02:48.000Z,34.10
2023-02-11T02:12:48.000Z,32.40
2023-02-11T02:22:48.000Z,32.90
2023-02-11T02:32:48.000Z,31.70
2023-02-11T02:42:48.000Z,31.80
2023-02-11T02:52:47.000Z,31.50
2023-02-11T03:02:47.000Z,32.90
2023-02-11T03:12:47.000Z,32.60
2023-02-11T03:22:47.000Z,34.00
2023-02-11T03:32:47.000Z,35.40
2023-02-11T03:42:47.000Z,34.60
2023-02-11T03:52:47.000Z,35.10
2023-02-11T04:02:47.000Z,35.20
2023-02-11T04:12:47.000Z,35.20
2023-02-11T04:22:47.000Z,36.50
2023-02-11T04:32:46.000Z,35.90
2023-02-11T04:42:46.000Z,37.20
2023-02-11T04:52:46.000Z,35.80
2023-02-11T05:02:46.000Z,37.20
2023-02-11T05:12:46.000Z,37.50
2023-02-11T05:22:46.000Z,38.50
2023-02-11T05:32:46.000Z,40.40
2023-02-11T05:42:46.000Z,39.80
2023-02-11T05:52:46.000Z,41.50
2023-02-11T06:02:46.000Z,41.40
2023-02-11T06:12:46.000Z,42.10
2023-02-11T06:22:45.000Z,42.20
2023-02-11T06:32:45.000Z,43.10
2023-02-11T06:42:45.000Z,42.60
2023-02-11T06:52:45.000Z,42.00
2023-02-11T07:02:45.000Z,40.50
2023-02-11T07:12:45.000Z,42.70
2023-02-11T07:22:45.000Z,40.70
2023-02-11T07:32:45.000Z,41.20
2023-02-11T07:42:45.000Z,40.40
2023-02-11T07:52:45.000Z,40.10
2023-02-11T08:02:44.000Z,39.80
2023-02-11T08:12:44.000Z,38.80
2023-02-11T08:22:44.000Z,38.30
2023-02-11T08:32:44.000Z,38.20
2023-02-11T08:42:44.000Z,39.10
2023-02-11T08:52:44.000Z,39.30
2023-02-11T09:02:44.000Z,39.20
2023-02-11T09:12:44.000Z,37.70
2023-02-11T09:22:44.000Z,37.60
2023-02-11T09:32:44.000Z,37.30
2023-02-11T09:42:44.000Z,38.30
2023-02-11T09:52:43.000Z,37.80
2023-02-11T10:02:43.000Z,37.20
2023-02-11T10:12:43.000Z,37.50
2023-02-11T10:22:43.000Z,36.40
2023-02-11T10:32:43.000Z,35.30
2023-02-11T10:42:43.000Z,33.70
2023-02-11T10:52:43.000Z,34.70
2023-02-11T11:02:43.000Z,34.50
2023-02-11T11:12:43.000Z,33.50
2023-02-11T11:22:43.000Z,33.80
2023-02-11T11:32:42.000Z,32.30
2023-02-11T11:42:42.000Z,32.50
2023-02-11T11:52:42.000Z,32.40
2023-02-11T12:02:42.000Z,31.40
2023-02-11T12:12:42.000Z,32.20
2023-02-11T12:22:42.000Z,31.30
2023-02-11T12:32:42.000Z,31.60
2023-02-11T12:42:42.000Z,33.50
2023-02-11T12:52:42.000Z,33.00
2023-02-11T13:02:42.000Z,32.50
2023-02-11T13:12:42.000Z,34.50
2023-02-11T13:22:41.000Z,33.50
2023-02-11T13:32:41.000Z,32.30
2023-02-11T13:42:41.000Z,31.80
2023-02-11T13:52:41.000Z,31.30
2023-02-11T14:02:41.000Z,31.00
2023-02-11T14:12:41.000Z,30.70
2023-02-11T14:22:41.000Z,28.80
2023-02-11T14:32:41.000Z,30.50
2023-02-11T14:42:41.000Z,28.70
2023-02-11T14:52:41.000Z,29.50
2023-02-11T15:02:40.000Z,29.50
2023-02-11T15:12:40.000Z,28.30
2023-02-11T15:22:50.000Z,28.50
2023-02-11T15:32:40.000Z,25.00
2023-02-11T15:32:40.000Z,25.00
2023-02-11T15:42:40.000Z,24.10
2023-02-11T15:52:40.000Z,23.90
2023-02-11T16:02:40.000Z,24.70
2023-02-11T16:12:40.000Z,23.50
2023-02-11T16:22:40.000Z,23.50
2023-02-11T16:32:40.000Z,24.10
2023-02-11T16:42:40.000Z,24.20
2023-02-11T16:52:39.000Z,24.10
2023-02-11T17:02:39.000Z,32.10
2023-02-11T17:12:39.000Z,23.10
2023-02-11T17:22:39.000Z,25.10
2023-02-11T17:32:39.000Z,25.30
2023-02-11T17:42:39.000Z,27.10
2023-02-11T17:52:39.000Z,25.00
2023-02-11T18:02:39.000Z,29.70
2023-02-11T18:12:39.000Z,36.90
2023-02-11T18:22:39.000Z,46.00
2023-02-11T18:32:39.000Z,55.30
2023-02-11T18:42:38.000Z,58.60
2023-02-11T18:52:38.000Z,57.40
2023-02-11T19:02:38.000Z,67.40
2023-02-11T19:12:38.000Z,68.80
2023-02-11T19:22:38.000Z,80.00
2023-02-11T19:32:38.000Z,86.50
2023-02-11T19:42:38.000Z,93.50
2023-02-11T19:52:38.000Z,105.20
2023-02-11T20:02:38.000Z,99.50
2023-02-11T20:12:38.000Z,102.50
2023-02-11T20:22:37.000Z,107.90
2023-02-11T20:32:37.000Z,110.50
2023-02-11T20:42:37.000Z,118.30
2023-02-11T20:52:46.000Z,115.90
2023-02-11T21:02:37.000Z,116.40
2023-02-11T21:12:37.000Z,112.80
2023-02-11T21:22:37.000Z,116.00
2023-02-11T21:32:37.000Z,116.50
2023-02-11T21:42:37.000Z,115.60
2023-02-11T21:52:37.000Z,116.50
2023-02-11T22:02:37.000Z,129.70
2023-02-11T22:12:36.000Z,131.30
2023-02-11T22:22:36.000Z,135.70
2023-02-11T22:32:36.000Z,137.90
2023-02-11T22:42:36.000Z,141.30
2023-02-11T22:52:36.000Z,142.80
2023-02-11T23:02:36.000Z,133.20
2023-02-11T23:12:36.000Z,130.60
2023-02-11T23:22:36.000Z,121.90
2023-02-11T23:32:36.000Z,122.00
2023-02-11T23:42:36.000Z,112.20
2023-02-11T23:52:35.000Z,108.10
